Time;durP1;ratioP1;P1;durP2;ratioP2;P2;SDS_P1;SDS_P2;PMS_P1;PMS_P2;Temp;Humidity;BMP_temperature;BMP_pressure;BME280_temperature;BME280_humidity;BME280_pressure;Samples;Min_cycle;Max_cycle;Signal;HPM_P1;HPM_P2
2021/10/01 00:02:16;;;;;;;4.40;3.40;;;8.50;97.30;;;;;;4994643;28;20222;-80
2021/10/01 00:04:42;;;;;;;5.50;3.77;;;8.50;97.30;;;;;;5010992;28;20445;-79
2021/10/01 00:07:09;;;;;;;5.53;3.27;;;8.50;97.30;;;;;;4995042;28;20419;-81
2021/10/01 00:09:35;;;;;;;8.37;3.83;;;8.50;97.30;;;;;;4995143;28;20249;-81
2021/10/01 00:12:02;;;;;;;5.80;3.40;;;8.50;97.30;;;;;;4994489;28;20413;-80
2021/10/01 00:14:28;;;;;;;6.20;3.10;;;8.40;97.30;;;;;;4994402;28;20837;-79
2021/10/01 00:16:55;;;;;;;4.20;3.17;;;8.40;97.30;;;;;;4994658;28;20427;-80
2021/10/01 00:19:22;;;;;;;6.13;3.67;;;8.40;97.30;;;;;;4994124;28;20174;-81
2021/10/01 00:21:48;;;;;;;7.47;3.73;;;8.30;97.30;;;;;;5010567;28;20417;-81
2021/10/01 00:24:14;;;;;;;14.07;3.70;;;8.30;97.30;;;;;;4994141;28;20448;-78
2021/10/01 00:26:40;;;;;;;7.80;3.87;;;8.30;97.30;;;;;;4994419;28;20177;-81
2021/10/01 00:29:08;;;;;;;5.90;3.43;;;8.30;97.30;;;;;;4994141;28;20181;-80
2021/10/01 00:31:34;;;;;;;9.63;3.80;;;8.30;97.30;;;;;;4993807;28;20417;-80
2021/10/01 00:34:01;;;;;;;5.40;3.33;;;8.30;97.30;;;;;;4993872;28;20527;-80
2021/10/01 00:36:28;;;;;;;7.50;3.40;;;8.30;97.30;;;;;;4993511;28;20437;-80
2021/10/01 00:38:53;;;;;;;5.17;3.10;;;8.20;97.30;;;;;;4993443;28;20536;-80
2021/10/01 00:41:19;;;;;;;5.83;3.40;;;8.20;97.30;;;;;;4993595;28;20491;-79
2021/10/01 00:43:45;;;;;;;5.17;3.20;;;8.20;97.30;;;;;;4993447;28;20273;-80
2021/10/01 00:46:10;;;;;;;5.80;3.17;;;8.20;97.30;;;;;;4993832;28;20173;-79
2021/10/01 00:48:36;;;;;;;8.00;3.57;;;8.20;97.30;;;;;;4993905;28;20199;-80
2021/10/01 00:51:02;;;;;;;3.17;2.77;;;8.10;97.30;;;;;;4993697;28;20232;-80
2021/10/01 00:53:29;;;;;;;5.50;3.50;;;8.10;97.30;;;;;;4993007;28;20939;-80
2021/10/01 00:55:55;;;;;;;3.37;3.20;;;8.10;97.30;;;;;;4993497;28;20420;-81
2021/10/01 00:58:21;;;;;;;4.50;3.33;;;8.10;97.30;;;;;;4993728;28;20453;-81
2021/10/01 01:03:18;;;;;;;3.57;3.37;;;8.00;97.30;;;;;;4995286;28;20194;-81
2021/10/01 01:05:58;;;;;;;10.30;3.30;;;8.00;97.30;;;;;;4994334;28;20416;-80
2021/10/01 01:08:28;;;;;;;5.87;3.60;;;8.00;97.30;;;;;;4993731;28;20228;-80
2021/10/01 01:11:06;;;;;;;5.17;3.03;;;8.00;97.30;;;;;;4993835;28;20428;-80
2021/10/01 01:13:31;;;;;;;9.50;3.33;;;7.90;97.30;;;;;;4993999;28;20452;-80
2021/10/01 01:16:09;;;;;;;7.07;3.10;;;7.90;97.30;;;;;;5010151;28;20417;-80
2021/10/01 01:18:44;;;;;;;10.20;3.73;;;7.90;97.30;;;;;;4993372;28;20200;-80
2021/10/01 01:21:21;;;;;;;8.43;3.50;;;7.90;97.30;;;;;;4993088;28;20473;-80
2021/10/01 01:24:14;;;;;;;5.53;3.00;;;7.90;97.30;;;;;;4993507;28;20433;-80
2021/10/01 01:26:49;;;;;;;8.20;3.73;;;7.90;97.30;;;;;;4993192;28;20432;-80
2021/10/01 01:29:49;;;;;;;5.07;3.17;;;7.90;97.30;;;;;;5008797;28;20424;-81
2021/10/01 01:32:19;;;;;;;5.97;3.03;;;7.80;97.30;;;;;;4994310;28;20471;-81
2021/10/01 01:34:54;;;;;;;5.03;2.90;;;7.80;97.30;;;;;;4993268;28;20440;-80
2021/10/01 01:37:27;;;;;;;5.77;3.27;;;7.80;97.30;;;;;;4993175;28;20870;-80
2021/10/01 01:39:55;;;;;;;6.20;3.13;;;7.80;97.30;;;;;;4993133;28;20412;-81
2021/10/01 01:42:23;;;;;;;6.63;3.20;;;7.70;97.30;;;;;;4993788;28;20995;-82
2021/10/01 01:44:49;;;;;;;5.50;2.90;;;7.70;97.30;;;;;;4993021;28;20437;-80
2021/10/01 01:47:16;;;;;;;5.50;3.50;;;7.70;97.30;;;;;;4993052;28;20424;-80
2021/10/01 01:49:44;;;;;;;6.43;3.00;;;7.60;97.30;;;;;;4993615;28;20500;-80
2021/10/01 01:52:10;;;;;;;7.70;3.17;;;7.60;97.30;;;;;;4993307;28;20519;-80
2021/10/01 01:54:37;;;;;;;3.43;2.53;;;7.50;97.30;;;;;;4993302;28;20954;-80
2021/10/01 01:57:03;;;;;;;6.67;3.30;;;7.50;97.30;;;;;;4992684;28;21272;-81
2021/10/01 01:59:31;;;;;;;4.90;3.00;;;7.40;97.30;;;;;;4993078;28;20458;-79
2021/10/01 02:01:57;;;;;;;4.20;2.93;;;7.40;97.30;;;;;;4992791;28;20469;-79
2021/10/01 02:04:25;;;;;;;8.60;3.13;;;7.40;97.30;;;;;;4992742;28;20913;-81
2021/10/01 02:06:51;;;;;;;5.80;3.50;;;7.30;97.30;;;;;;4994291;28;20416;-78
2021/10/01 02:09:18;;;;;;;4.80;3.30;;;7.30;97.30;;;;;;4996590;28;20424;-80
2021/10/01 02:11:45;;;;;;;9.43;2.77;;;7.30;97.30;;;;;;4996070;28;20461;-80
2021/10/01 02:14:22;;;;;;;2.93;2.40;;;7.30;97.30;;;;;;4996556;28;20440;-80
2021/10/01 02:16:49;;;;;;;5.67;3.30;;;7.30;97.30;;;;;;4996547;28;20471;-80
2021/10/01 02:19:17;;;;;;;4.63;3.17;;;7.30;97.30;;;;;;4996276;28;20538;-80
2021/10/01 02:21:45;;;;;;;5.03;3.20;;;7.30;97.30;;;;;;4997099;28;20415;-80
2021/10/01 02:24:10;;;;;;;5.90;3.20;;;7.30;97.30;;;;;;4996895;28;21033;-80
2021/10/01 02:26:46;;;;;;;6.10;3.20;;;7.30;97.30;;;;;;4996670;28;20449;-80
2021/10/01 02:29:25;;;;;;;6.07;3.37;;;7.30;97.30;;;;;;4996698;28;20628;-82
2021/10/01 02:32:09;;;;;;;4.80;2.77;;;7.30;97.30;;;;;;4996320;28;20455;-80
2021/10/01 02:34:39;;;;;;;2.70;2.50;;;7.30;97.30;;;;;;5012867;28;20982;-79
2021/10/01 02:37:08;;;;;;;5.80;3.20;;;7.30;97.30;;;;;;4996407;28;20431;-80
2021/10/01 02:39:36;;;;;;;5.77;2.73;;;7.30;97.30;;;;;;4996524;28;20500;-80
2021/10/01 02:42:03;;;;;;;3.70;3.03;;;7.30;97.30;;;;;;4996020;28;20961;-80
2021/10/01 02:44:29;;;;;;;6.07;2.83;;;7.30;97.30;;;;;;4996346;28;20512;-79
2021/10/01 02:46:54;;;;;;;3.90;3.20;;;7.20;97.30;;;;;;4995840;28;20965;-80
2021/10/01 02:49:20;;;;;;;4.40;2.77;;;7.20;97.30;;;;;;4995781;28;20209;-78
2021/10/01 02:51:52;;;;;;;4.73;3.20;;;7.20;97.30;;;;;;4995503;28;20181;-79
2021/10/01 02:54:29;;;;;;;6.73;3.00;;;7.30;97.30;;;;;;4995779;28;20197;-80
2021/10/01 02:57:12;;;;;;;3.10;2.50;;;7.30;97.30;;;;;;4995658;28;20892;-79
2021/10/01 02:59:41;;;;;;;4.90;3.00;;;7.30;97.30;;;;;;4995423;28;20413;-80
2021/10/01 03:02:09;;;;;;;4.20;3.10;;;7.20;97.30;;;;;;4995445;28;20472;-80
2021/10/01 03:04:36;;;;;;;10.27;4.00;;;7.20;97.30;;;;;;4997181;28;20848;-80
2021/10/01 03:07:04;;;;;;;4.00;2.70;;;7.20;97.30;;;;;;4995188;28;20405;-80
2021/10/01 03:09:30;;;;;;;3.17;2.80;;;7.20;97.30;;;;;;4995500;28;20417;-80
2021/10/01 03:11:58;;;;;;;2.80;2.60;;;7.20;97.30;;;;;;4995428;28;20788;-80
2021/10/01 03:14:24;;;;;;;3.07;2.83;;;7.20;97.30;;;;;;4995391;28;21017;-81
2021/10/01 03:16:51;;;;;;;6.90;4.07;;;7.20;97.30;;;;;;4996568;28;20417;-79
2021/10/01 03:19:22;;;;;;;4.00;2.73;;;7.20;97.30;;;;;;4995292;28;20822;-80
2021/10/01 03:21:50;;;;;;;5.03;3.07;;;7.20;97.30;;;;;;4995292;28;20409;-80
2021/10/01 03:24:15;;;;;;;6.63;3.30;;;7.30;97.30;;;;;;4995403;28;20433;-79
2021/10/01 03:26:41;;;;;;;8.53;3.43;;;7.20;97.30;;;;;;4995486;28;20424;-80
2021/10/01 03:29:09;;;;;;;4.40;2.90;;;7.20;97.30;;;;;;4994753;28;20243;-82
2021/10/01 03:31:35;;;;;;;5.20;2.87;;;7.20;97.30;;;;;;4994662;28;20189;-81
2021/10/01 03:34:01;;;;;;;3.13;2.37;;;7.10;97.30;;;;;;4995425;28;20962;-79
2021/10/01 03:36:27;;;;;;;4.40;3.20;;;7.20;97.30;;;;;;4994741;28;20420;-79
2021/10/01 03:38:56;;;;;;;5.33;3.60;;;7.20;97.30;;;;;;4994883;28;20340;-80
2021/10/01 03:41:22;;;;;;;7.50;2.70;;;7.20;97.30;;;;;;4995146;28;20173;-78
2021/10/01 03:43:48;;;;;;;4.50;3.20;;;7.20;97.30;;;;;;4994671;28;20977;-80
2021/10/01 03:46:14;;;;;;;6.70;2.90;;;7.20;97.30;;;;;;4994739;28;20464;-80
2021/10/01 03:48:40;;;;;;;9.30;3.57;;;7.20;97.30;;;;;;4994537;28;20425;-80
2021/10/01 03:51:06;;;;;;;4.00;3.10;;;7.20;97.30;;;;;;4994890;28;20209;-80
2021/10/01 03:53:32;;;;;;;3.80;3.03;;;7.20;97.30;;;;;;4995645;28;20437;-81
2021/10/01 03:55:58;;;;;;;4.07;3.03;;;7.20;97.30;;;;;;4994881;28;20178;-80
2021/10/01 03:58:23;;;;;;;3.70;2.77;;;7.20;97.30;;;;;;4995510;28;20455;-80
2021/10/01 04:00:49;;;;;;;4.00;2.90;;;7.10;97.30;;;;;;4994398;28;20217;-78
2021/10/01 04:03:15;;;;;;;3.70;3.27;;;7.10;97.30;;;;;;4995016;28;20255;-80
2021/10/01 04:05:41;;;;;;;4.10;3.00;;;7.10;97.30;;;;;;4994632;28;20185;-80
2021/10/01 04:08:11;;;;;;;5.00;3.93;;;7.10;97.30;;;;;;4995597;28;20414;-80
2021/10/01 04:10:37;;;;;;;6.17;3.40;;;7.10;97.30;;;;;;4995457;28;20424;-80
2021/10/01 04:13:04;;;;;;;3.70;3.00;;;7.10;97.30;;;;;;4994794;28;20445;-80
2021/10/01 04:15:30;;;;;;;4.23;2.97;;;7.10;97.30;;;;;;4995306;28;20421;-80
2021/10/01 04:17:55;;;;;;;6.50;2.63;;;7.10;97.30;;;;;;4995632;28;20445;-80
2021/10/01 04:20:21;;;;;;;3.27;3.10;;;7.10;97.30;;;;;;4995616;28;20170;-80
2021/10/01 04:22:47;;;;;;;4.03;2.60;;;7.10;97.30;;;;;;4993851;28;20264;-78
2021/10/01 04:25:12;;;;;;;3.53;2.63;;;7.10;97.30;;;;;;4994667;28;20224;-80
2021/10/01 04:27:38;;;;;;;5.83;2.67;;;7.10;97.30;;;;;;4994818;28;20178;-78
2021/10/01 04:30:04;;;;;;;4.27;2.97;;;7.10;97.30;;;;;;4994160;28;20182;-80
2021/10/01 04:32:32;;;;;;;5.53;3.23;;;7.10;97.30;;;;;;4994376;28;20181;-80
2021/10/01 04:35:00;;;;;;;3.30;2.70;;;7.10;97.30;;;;;;4994769;28;20441;-79
2021/10/01 04:37:26;;;;;;;6.23;3.17;;;7.10;97.30;;;;;;4994341;28;20529;-77
2021/10/01 04:39:55;;;;;;;5.60;3.27;;;7.10;97.30;;;;;;4994832;28;20417;-79
2021/10/01 04:42:21;;;;;;;2.93;2.73;;;7.10;97.30;;;;;;4994904;28;20425;-78
2021/10/01 04:44:47;;;;;;;7.13;3.20;;;7.00;97.30;;;;;;4995463;28;21004;-80
2021/10/01 04:47:12;;;;;;;3.03;2.77;;;7.00;97.30;;;;;;4995290;28;20445;-79
2021/10/01 04:49:38;;;;;;;3.17;2.87;;;6.90;97.30;;;;;;4995969;28;20177;-78
2021/10/01 04:52:04;;;;;;;4.90;2.97;;;6.90;97.30;;;;;;4995595;28;20182;-80
2021/10/01 04:54:30;;;;;;;3.83;3.03;;;6.90;97.30;;;;;;4995431;28;20198;-80
2021/10/01 04:56:56;;;;;;;2.77;2.30;;;6.90;97.30;;;;;;4997202;28;20512;-81
2021/10/01 04:59:22;;;;;;;14.20;4.00;;;6.90;97.30;;;;;;4995201;28;20457;-80
2021/10/01 05:01:47;;;;;;;2.97;2.80;;;6.90;97.30;;;;;;4993571;28;20261;-81
2021/10/01 05:04:13;;;;;;;5.20;2.67;;;6.90;97.30;;;;;;4994332;28;20229;-79
2021/10/01 05:06:40;;;;;;;4.13;3.27;;;6.90;97.30;;;;;;4994314;28;20261;-79
2021/10/01 05:09:05;;;;;;;5.73;2.80;;;6.90;97.30;;;;;;4994293;28;20717;-80
2021/10/01 05:11:31;;;;;;;3.30;3.03;;;6.80;97.30;;;;;;4994164;28;20425;-81
2021/10/01 05:13:57;;;;;;;5.53;2.70;;;6.80;97.30;;;;;;4993991;28;20285;-80
2021/10/01 05:16:22;;;;;;;5.73;3.03;;;6.80;97.30;;;;;;4995475;28;20192;-79
2021/10/01 05:18:48;;;;;;;6.57;3.30;;;6.80;97.30;;;;;;4993718;28;20220;-79
2021/10/01 05:21:13;;;;;;;3.90;3.10;;;6.80;97.30;;;;;;4994036;28;20216;-80
2021/10/01 05:23:39;;;;;;;4.20;2.70;;;6.80;97.30;;;;;;4993877;28;20198;-81
2021/10/01 05:26:04;;;;;;;4.57;3.10;;;6.80;97.30;;;;;;4994348;28;20189;-80
2021/10/01 05:28:30;;;;;;;5.20;3.37;;;6.80;97.30;;;;;;4993586;28;20189;-80
2021/10/01 05:30:56;;;;;;;4.20;3.17;;;6.80;97.30;;;;;;4995049;28;20261;-81
2021/10/01 05:33:21;;;;;;;4.03;2.93;;;6.80;97.30;;;;;;4993988;28;20209;-80
2021/10/01 05:35:47;;;;;;;9.10;3.07;;;6.80;97.30;;;;;;4995008;28;20741;-80
2021/10/01 05:38:13;;;;;;;5.20;3.10;;;6.80;97.30;;;;;;4993605;28;20581;-79
2021/10/01 05:40:40;;;;;;;7.27;2.90;;;6.70;97.30;;;;;;4993358;28;20272;-80
2021/10/01 05:43:06;;;;;;;4.07;3.20;;;6.70;97.30;;;;;;4996947;28;20448;-80
2021/10/01 05:45:33;;;;;;;6.23;3.20;;;6.80;97.30;;;;;;4997888;28;20420;-80
2021/10/01 05:47:59;;;;;;;5.53;2.80;;;6.80;97.30;;;;;;4997774;28;20189;-78
2021/10/01 05:50:27;;;;;;;3.30;3.03;;;6.80;97.30;;;;;;4997805;28;20801;-80
2021/10/01 05:52:59;;;;;;;3.80;2.87;;;6.80;97.30;;;;;;4997532;28;20276;-79
2021/10/01 05:55:25;;;;;;;7.37;2.70;;;6.80;97.30;;;;;;4997712;28;20428;-80
2021/10/01 05:57:51;;;;;;;9.40;3.57;;;6.90;97.30;;;;;;4997008;28;20465;-80
2021/10/01 06:00:17;;;;;;;4.17;3.10;;;6.90;97.30;;;;;;4997150;28;20236;-80
2021/10/01 06:02:43;;;;;;;9.23;3.00;;;6.90;97.30;;;;;;4997709;28;20184;-80
2021/10/01 06:05:10;;;;;;;5.27;2.93;;;7.00;97.30;;;;;;4997465;28;20196;-78
2021/10/01 06:07:36;;;;;;;3.60;2.57;;;7.00;97.30;;;;;;4997588;28;20425;-80
2021/10/01 06:10:03;;;;;;;4.43;3.10;;;7.10;97.30;;;;;;4998511;28;20424;-78
2021/10/01 06:12:28;;;;;;;4.37;2.90;;;7.10;97.30;;;;;;4997129;28;20209;-79
2021/10/01 06:14:54;;;;;;;6.23;2.80;;;7.20;97.30;;;;;;4997347;28;20440;-82
2021/10/01 06:17:19;;;;;;;3.87;2.63;;;7.30;97.30;;;;;;4997065;28;20217;-80
2021/10/01 06:19:45;;;;;;;6.00;3.10;;;7.30;97.30;;;;;;4996657;28;20632;-78
2021/10/01 06:22:12;;;;;;;6.17;3.30;;;7.50;97.30;;;;;;4997839;28;20178;-80
2021/10/01 06:24:38;;;;;;;4.43;2.70;;;7.50;97.30;;;;;;4996525;28;20202;-80
2021/10/01 06:27:04;;;;;;;4.60;2.77;;;7.60;97.30;;;;;;4996156;28;20431;-80
2021/10/01 06:29:30;;;;;;;4.17;2.67;;;7.70;97.30;;;;;;4996295;28;20432;-79
2021/10/01 06:31:56;;;;;;;3.77;3.03;;;7.80;97.30;;;;;;4997980;28;20421;-80
2021/10/01 06:34:22;;;;;;;3.67;2.77;;;7.90;97.30;;;;;;4997465;28;20441;-80
2021/10/01 06:36:48;;;;;;;6.83;2.70;;;8.00;97.30;;;;;;4996641;28;20719;-79
2021/10/01 06:39:13;;;;;;;6.40;2.80;;;8.00;97.30;;;;;;4996625;28;20256;-78
2021/10/01 06:41:40;;;;;;;10.10;3.23;;;8.10;97.30;;;;;;4996211;28;20834;-80
2021/10/01 06:44:07;;;;;;;5.70;2.80;;;8.30;97.30;;;;;;4996192;28;20607;-81
2021/10/01 06:46:54;;;;;;;5.80;2.73;;;8.40;97.30;;;;;;4996241;28;20412;-79
2021/10/01 08:19:06;;;;;;;2.83;2.00;;;12.70;97.30;;;;;;4995183;28;20448;-80
2021/10/01 08:21:31;;;;;;;7.07;2.37;;;12.80;97.30;;;;;;4993537;28;20564;-81
2021/10/01 08:24:01;;;;;;;2.53;2.10;;;12.90;97.30;;;;;;4993659;28;20464;-79
2021/10/01 08:26:28;;;;;;;4.77;2.00;;;13.00;97.30;;;;;;4993717;28;20185;-80
2021/10/01 08:28:54;;;;;;;3.10;1.60;;;13.20;97.30;;;;;;4993729;28;20453;-79
2021/10/01 08:31:19;;;;;;;2.73;2.17;;;13.40;97.30;;;;;;4993198;28;20481;-79
2021/10/01 08:33:46;;;;;;;3.87;2.00;;;13.40;96.50;;;;;;4993907;28;20505;-79
2021/10/01 08:36:12;;;;;;;4.80;1.90;;;13.60;97.10;;;;;;4993767;28;20273;-79
2021/10/01 08:38:38;;;;;;;4.23;1.97;;;13.70;97.30;;;;;;4993176;28;20492;-80
2021/10/01 08:41:04;;;;;;;3.43;2.00;;;13.80;97.30;;;;;;4993684;28;20471;-79
2021/10/01 08:43:32;;;;;;;7.37;2.10;;;13.90;96.90;;;;;;4993389;28;20260;-79
2021/10/01 08:45:59;;;;;;;4.20;1.90;;;14.00;97.20;;;;;;4993691;28;20421;-79
2021/10/01 08:48:26;;;;;;;9.43;2.07;;;14.10;96.90;;;;;;4993311;28;20432;-78
2021/10/01 08:50:52;;;;;;;1.50;1.40;;;14.30;96.80;;;;;;4993678;28;20942;-80
2021/10/01 08:53:19;;;;;;;3.77;1.80;;;14.30;95.40;;;;;;4994907;28;20441;-78
2021/10/01 08:55:47;;;;;;;3.53;1.93;;;14.40;96.20;;;;;;4993587;28;20182;-79
2021/10/01 08:58:14;;;;;;;3.17;2.10;;;14.50;95.70;;;;;;4994518;28;20551;-78
2021/10/01 09:00:39;;;;;;;2.97;2.10;;;14.60;96.00;;;;;;4993141;28;20551;-80
2021/10/01 09:03:05;;;;;;;3.00;1.80;;;14.70;96.70;;;;;;4993550;28;20476;-79
2021/10/01 09:05:31;;;;;;;5.10;1.53;;;14.80;95.90;;;;;;4994600;28;20240;-78
2021/10/01 09:08:16;;;;;;;3.47;2.00;;;14.80;96.00;;;;;;4993433;28;20706;-80
2021/10/01 09:10:42;;;;;;;2.67;1.63;;;15.00;95.90;;;;;;4992729;28;20236;-78
2021/10/01 09:13:10;;;;;;;2.73;1.87;;;15.10;95.30;;;;;;4993343;28;20448;-79
2021/10/01 09:15:42;;;;;;;2.40;1.60;;;15.20;94.20;;;;;;4992969;28;20694;-79
2021/10/01 09:18:08;;;;;;;8.43;1.87;;;15.40;95.20;;;;;;4992807;28;20477;-79
2021/10/01 09:20:35;;;;;;;4.73;1.87;;;15.50;93.80;;;;;;4994142;28;20413;-79
2021/10/01 09:23:15;;;;;;;4.93;2.00;;;15.60;93.80;;;;;;4993276;28;20271;-79
2021/10/01 09:25:40;;;;;;;3.17;1.87;;;15.70;93.60;;;;;;4993174;28;20421;-79
2021/10/01 09:28:12;;;;;;;3.43;2.00;;;15.80;94.00;;;;;;4993907;28;20424;-78
2021/10/01 09:30:50;;;;;;;3.30;1.70;;;15.90;93.60;;;;;;4992674;28;20181;-79
2021/10/01 09:33:19;;;;;;;2.80;1.60;;;16.00;92.80;;;;;;4992784;28;20437;-80
2021/10/01 09:35:45;;;;;;;5.87;1.77;;;16.00;92.10;;;;;;4992193;28;21301;-77
2021/10/01 09:38:15;;;;;;;3.53;2.30;;;16.10;92.00;;;;;;4992586;28;20989;-79
2021/10/01 09:40:43;;;;;;;6.27;1.73;;;16.20;91.60;;;;;;4993326;28;20413;-79
2021/10/01 09:43:29;;;;;;;4.00;2.07;;;16.20;90.80;;;;;;4992793;28;20450;-81
2021/10/01 09:46:13;;;;;;;3.40;1.90;;;16.30;91.40;;;;;;4993038;28;20417;-78
2021/10/01 09:48:40;;;;;;;4.10;1.70;;;16.30;90.30;;;;;;4992462;28;20975;-79
2021/10/01 09:51:18;;;;;;;1.77;1.60;;;16.40;90.50;;;;;;4992341;28;20421;-77
2021/10/01 09:53:49;;;;;;;7.97;2.73;;;16.50;91.30;;;;;;4991830;28;20436;-80
2021/10/01 09:56:29;;;;;;;3.97;1.53;;;16.60;90.70;;;;;;4992863;28;20448;-79
2021/10/01 09:59:14;;;;;;;4.37;1.70;;;16.70;89.70;;;;;;4992826;28;20475;-79
2021/10/01 10:02:06;;;;;;;4.67;1.70;;;16.80;89.50;;;;;;4991884;28;20809;-79
2021/10/01 10:04:50;;;;;;;3.27;2.00;;;16.80;90.10;;;;;;5009769;28;20528;-81
2021/10/01 10:07:27;;;;;;;3.83;1.67;;;16.90;89.20;;;;;;5009326;28;20420;-80
2021/10/01 10:09:54;;;;;;;4.23;2.00;;;17.00;89.40;;;;;;4993183;28;20415;-79
2021/10/01 10:12:24;;;;;;;3.50;1.83;;;17.00;88.80;;;;;;5009585;28;20421;-80
2021/10/01 10:14:54;;;;;;;5.13;3.10;;;17.10;89.90;;;;;;5009235;28;20869;-79
2021/10/01 10:17:25;;;;;;;1.67;1.50;;;17.20;90.40;;;;;;4993665;28;20397;-79
2021/10/01 10:19:57;;;;;;;5.50;1.70;;;17.30;90.20;;;;;;4991967;28;20413;-79
2021/10/01 10:22:24;;;;;;;4.60;1.70;;;17.40;88.80;;;;;;4993118;28;20409;-79
2021/10/01 10:24:51;;;;;;;3.37;1.90;;;17.40;89.70;;;;;;4992409;28;20433;-79
2021/10/01 10:27:18;;;;;;;6.60;1.60;;;17.50;89.30;;;;;;4993567;28;20914;-78
2021/10/01 10:29:46;;;;;;;4.90;1.70;;;17.70;88.10;;;;;;4996156;28;20504;-80
2021/10/01 10:32:14;;;;;;;3.47;1.70;;;17.70;89.00;;;;;;4996135;28;20413;-79
2021/10/01 10:35:04;;;;;;;2.80;2.13;;;17.80;88.70;;;;;;4996000;28;20429;-79
2021/10/01 10:37:42;;;;;;;2.20;1.70;;;17.90;87.50;;;;;;4995521;28;20419;-83
2021/10/01 10:40:19;;;;;;;3.40;1.53;;;17.90;87.20;;;;;;4996305;28;20511;-79
2021/10/01 10:42:47;;;;;;;3.40;1.70;;;18.00;87.30;;;;;;4994883;28;20413;-79
2021/10/01 10:45:24;;;;;;;4.00;1.50;;;18.00;88.80;;;;;;4996434;28;20466;-79
2021/10/01 10:47:57;;;;;;;3.50;1.73;;;18.10;89.10;;;;;;4994974;28;20423;-79
2021/10/01 10:53:16;;;;;;;6.27;2.13;;;18.30;89.10;;;;;;4997578;28;20989;-79
2021/10/01 10:55:51;;;;;;;3.13;1.83;;;18.40;87.00;;;;;;4996396;28;20626;-78
2021/10/01 10:58:23;;;;;;;4.57;2.17;;;18.50;87.10;;;;;;5012529;28;20456;-80
2021/10/01 11:01:14;;;;;;;4.03;1.57;;;18.50;86.50;;;;;;5011838;28;20468;-80
2021/10/01 11:03:40;;;;;;;3.43;2.07;;;18.60;86.30;;;;;;4996798;28;20429;-81
2021/10/01 11:06:13;;;;;;;3.07;1.60;;;18.60;87.20;;;;;;4996289;28;20423;-80
2021/10/01 11:09:03;;;;;;;1.90;1.57;;;18.60;84.60;;;;;;5011466;28;20435;-77
2021/10/01 11:11:34;;;;;;;2.43;1.60;;;18.70;87.00;;;;;;4975652;28;20436;-80
2021/10/01 11:14:15;;;;;;;2.97;1.33;;;18.80;84.80;;;;;;5009646;28;20595;-77
2021/10/01 11:16:53;;;;;;;2.43;1.40;;;18.90;86.10;;;;;;5009566;28;20432;-78
2021/10/01 11:19:42;;;;;;;2.33;1.70;;;19.00;85.10;;;;;;5010038;28;20859;-77
2021/10/01 11:22:31;;;;;;;3.97;1.50;;;19.10;82.40;;;;;;4993634;28;20431;-78
2021/10/01 11:24:59;;;;;;;5.33;1.30;;;19.00;83.00;;;;;;4993253;28;20924;-78
2021/10/01 11:27:25;;;;;;;2.67;1.33;;;19.10;84.00;;;;;;4992710;28;20516;-78
2021/10/01 11:29:51;;;;;;;7.53;1.97;;;19.20;83.00;;;;;;4992201;28;20495;-78
2021/10/01 11:32:20;;;;;;;2.70;1.50;;;19.30;84.60;;;;;;4992994;28;20413;-77
2021/10/01 11:34:47;;;;;;;3.00;1.43;;;19.40;84.30;;;;;;4992870;28;20190;-78
2021/10/01 11:37:24;;;;;;;2.53;1.33;;;19.60;84.70;;;;;;5009715;28;20405;-82
2021/10/01 11:39:51;;;;;;;2.60;2.07;;;19.80;81.90;;;;;;5009711;28;20487;-77
2021/10/01 11:42:22;;;;;;;2.30;1.77;;;19.80;80.60;;;;;;4994381;28;20405;-80
2021/10/01 11:44:48;;;;;;;2.70;1.40;;;19.80;81.10;;;;;;4992665;28;20461;-78
2021/10/01 11:47:14;;;;;;;3.73;1.50;;;19.90;82.60;;;;;;4993341;28;20441;-76
2021/10/01 11:49:39;;;;;;;1.40;1.30;;;20.10;83.30;;;;;;4993346;28;20205;-79
2021/10/01 11:52:13;;;;;;;2.80;1.73;;;20.10;81.40;;;;;;4994035;28;20546;-81
2021/10/01 11:54:54;;;;;;;4.30;1.60;;;20.20;80.70;;;;;;5007632;28;20209;-78
2021/10/01 11:57:20;;;;;;;2.83;1.90;;;20.30;82.70;;;;;;5013451;28;20413;-79
2021/10/01 12:00:02;;;;;;;3.43;1.50;;;20.30;81.00;;;;;;5013060;28;20495;-78
2021/10/01 12:02:35;;;;;;;2.20;1.57;;;20.30;81.70;;;;;;5013188;28;20468;-80
2021/10/01 12:05:33;;;;;;;4.40;1.47;;;20.40;82.40;;;;;;5013767;28;20800;-82
2021/10/01 12:08:00;;;;;;;2.50;1.63;;;20.50;80.10;;;;;;5013543;28;20806;-79
2021/10/01 12:10:28;;;;;;;1.70;1.20;;;20.50;81.70;;;;;;5012230;28;20834;-77
2021/10/01 12:13:04;;;;;;;2.90;1.70;;;20.70;80.80;;;;;;5012403;28;20420;-80
2021/10/01 12:15:57;;;;;;;3.00;1.30;;;20.70;79.70;;;;;;5029512;28;20821;-78
2021/10/01 12:18:34;;;;;;;2.00;1.60;;;20.70;79.40;;;;;;5012745;28;20482;-79
2021/10/01 12:21:06;;;;;;;1.80;1.40;;;20.80;80.20;;;;;;5029284;28;20423;-79
2021/10/01 12:23:39;;;;;;;1.87;1.30;;;20.90;80.40;;;;;;5029637;28;20451;-79
2021/10/01 12:26:31;;;;;;;1.50;1.40;;;21.00;80.90;;;;;;5014157;28;20409;-78
2021/10/01 12:29:04;;;;;;;4.20;1.53;;;21.10;79.40;;;;;;5012695;28;20412;-78
2021/10/01 12:31:49;;;;;;;1.57;1.50;;;21.20;80.20;;;;;;5012818;28;20420;-79
2021/10/01 12:34:25;;;;;;;2.30;1.50;;;21.30;78.60;;;;;;5012688;28;20439;-78
2021/10/01 12:36:58;;;;;;;3.03;1.60;;;21.40;77.50;;;;;;5012172;28;20417;-77
2021/10/01 12:39:26;;;;;;;4.10;1.50;;;21.40;77.60;;;;;;5011932;28;20458;-80
2021/10/01 12:42:05;;;;;;;2.47;1.27;;;21.40;76.20;;;;;;5013323;28;20474;-80
2021/10/01 12:44:38;;;;;;;2.63;1.27;;;21.40;78.40;;;;;;5014168;28;20439;-81
2021/10/01 12:47:16;;;;;;;2.23;1.43;;;21.50;79.30;;;;;;5015468;28;20443;-80
2021/10/01 12:49:43;;;;;;;2.73;1.47;;;21.50;76.00;;;;;;5015577;28;20442;-81
2021/10/01 12:52:19;;;;;;;1.40;1.33;;;21.60;75.30;;;;;;5014350;28;20420;-79
2021/10/01 12:54:48;;;;;;;6.10;1.83;;;21.70;78.60;;;;;;5015804;28;20559;-77
2021/10/01 12:57:32;;;;;;;9.60;1.30;;;21.90;77.20;;;;;;5014917;28;20424;-78
2021/10/01 12:59:59;;;;;;;1.33;1.30;;;21.90;77.20;;;;;;5015030;28;20416;-79
2021/10/01 13:02:34;;;;;;;2.00;1.40;;;22.00;76.50;;;;;;5015312;28;20476;-80
2021/10/01 13:05:14;;;;;;;1.43;1.40;;;22.10;75.40;;;;;;5031108;28;20439;-78
2021/10/01 13:07:51;;;;;;;2.40;1.20;;;22.10;74.10;;;;;;5032497;28;20424;-79
2021/10/01 13:10:24;;;;;;;2.47;1.60;;;22.10;73.00;;;;;;5014981;28;20416;-78
2021/10/01 13:12:52;;;;;;;3.33;1.20;;;22.20;74.40;;;;;;5031244;28;20416;-78
2021/10/01 13:15:17;;;;;;;1.57;1.27;;;22.10;73.70;;;;;;5015432;28;20451;-82
2021/10/01 13:18:07;;;;;;;1.30;1.20;;;22.10;74.40;;;;;;5031809;28;20463;-80
2021/10/01 13:20:35;;;;;;;1.33;1.23;;;22.20;74.20;;;;;;5014583;28;20173;-80
2021/10/01 13:23:06;;;;;;;2.20;1.40;;;22.10;73.70;;;;;;5015018;28;20432;-79
2021/10/01 13:25:41;;;;;;;1.93;1.30;;;22.10;72.90;;;;;;5014320;28;20428;-81
2021/10/01 13:28:07;;;;;;;1.77;1.30;;;22.20;74.00;;;;;;5014800;28;20478;-78
2021/10/01 13:30:35;;;;;;;3.07;1.27;;;22.30;73.50;;;;;;5003447;28;20417;-79
2021/10/01 13:33:03;;;;;;;1.40;1.30;;;22.40;74.00;;;;;;4994089;28;20275;-78
2021/10/01 13:35:29;;;;;;;4.30;1.23;;;22.50;72.90;;;;;;4996312;28;20974;-84
2021/10/01 13:37:55;;;;;;;3.17;1.80;;;22.50;72.40;;;;;;4993998;28;20556;-81
2021/10/01 13:40:22;;;;;;;2.33;1.30;;;22.50;72.10;;;;;;5010169;28;20838;-79
2021/10/01 13:42:48;;;;;;;3.00;1.60;;;22.70;75.20;;;;;;4992476;28;20429;-80
2021/10/01 13:45:14;;;;;;;3.43;1.10;;;22.70;72.50;;;;;;4994034;28;20417;-82
2021/10/01 13:47:40;;;;;;;1.20;1.10;;;22.80;73.20;;;;;;4995381;28;20412;-80
2021/10/01 13:50:07;;;;;;;3.53;1.50;;;22.80;73.40;;;;;;4993515;28;20420;-79
2021/10/01 13:52:33;;;;;;;1.27;1.20;;;22.80;72.50;;;;;;4993411;28;20766;-80
2021/10/01 13:54:59;;;;;;;1.70;1.40;;;22.80;73.50;;;;;;4994660;28;21002;-79
2021/10/01 13:57:25;;;;;;;64.17;3.30;;;22.80;74.20;;;;;;4994197;28;20491;-80
2021/10/01 13:59:51;;;;;;;1.97;1.20;;;22.90;74.40;;;;;;4993385;28;20707;-80
2021/10/01 14:02:18;;;;;;;5.60;1.37;;;22.90;74.50;;;;;;4993301;28;20225;-79
2021/10/01 14:04:44;;;;;;;1.63;1.30;;;22.90;72.70;;;;;;5013239;28;20441;-80
2021/10/01 14:07:10;;;;;;;5.80;1.20;;;22.90;70.50;;;;;;4996701;28;20475;-79
2021/10/01 14:09:36;;;;;;;4.00;1.50;;;22.80;70.40;;;;;;4996945;28;20420;-80
2021/10/01 14:12:01;;;;;;;3.13;1.40;;;22.80;70.60;;;;;;4996650;28;20787;-80
2021/10/01 14:14:27;;;;;;;1.30;1.10;;;22.70;69.30;;;;;;4996243;28;20440;-80
2021/10/01 14:16:53;;;;;;;1.70;1.30;;;22.60;69.80;;;;;;4997970;28;20233;-80
2021/10/01 14:19:19;;;;;;;4.77;1.40;;;22.50;70.30;;;;;;4997758;28;20587;-79
2021/10/01 14:21:44;;;;;;;1.50;1.30;;;22.50;72.50;;;;;;4997905;28;20201;-81
2021/10/01 14:24:10;;;;;;;6.60;1.20;;;22.50;71.40;;;;;;4998393;28;20527;-81
2021/10/01 14:26:36;;;;;;;1.53;1.40;;;22.40;70.50;;;;;;4999116;28;20205;-80
2021/10/01 14:29:02;;;;;;;2.83;1.50;;;22.50;72.40;;;;;;4997259;28;20272;-81
2021/10/01 14:31:28;;;;;;;1.53;1.20;;;22.50;72.40;;;;;;4997249;28;20456;-80
2021/10/01 14:33:53;;;;;;;3.60;1.50;;;22.60;72.80;;;;;;4998884;28;20233;-80
2021/10/01 14:36:19;;;;;;;2.90;1.40;;;22.60;73.70;;;;;;4998784;28;20193;-78
2021/10/01 14:38:45;;;;;;;3.60;1.40;;;22.70;72.80;;;;;;4997345;28;20209;-81
2021/10/01 14:41:10;;;;;;;2.93;1.23;;;22.60;71.60;;;;;;4997946;28;20182;-80